| time (UTC) | temp F | wind direction | speed knots | gust knots | rain 1hr in | rain 24hr in | rain mn in | humidity % | barometer mb |
| 20260509134507 | 56 | 246 | 6.1 | 13.9 | 0.00 | 0.00 | 0.00 | 72 | 996.7 |
| 20260509133010 | 57 | 250 | 10.4 | 14.8 | 0.00 | 0.00 | 0.00 | 69 | 996.9 |
| 20260509131559 | 56 | 261 | 4.3 | 7.0 | 0.00 | 0.00 | 0.00 | 69 | 996.9 |
| 20260509130100 | 55 | 255 | 7.0 | 9.6 | 0.00 | 0.00 | 0.00 | 68 | 997.1 |
| 20260509124556 | 55 | 44 | 0.0 | 2.6 | 0.00 | 0.00 | 0.00 | 66 | 997.3 |
| 20260509123116 | 55 | 259 | 1.7 | 4.3 | 0.00 | 0.00 | 0.00 | 62 | 997.1 |
| 20260509121604 | 54 | 215 | 0.0 | 1.7 | 0.00 | 0.00 | 0.00 | 60 | 997.2 |
| 20260509120045 | 54 | 254 | 0.0 | 2.6 | 0.00 | 0.00 | 0.00 | 61 | 997.2 |
| 20260509114544 | 54 | 240 | 2.6 | 8.7 | 0.00 | 0.00 | 0.00 | 61 | 997.3 |
| 20260509113042 | 53 | 260 | 0.0 | 2.6 | 0.00 | 0.00 | 0.00 | 61 | 997.4 |
| 20260509111555 | 52 | 255 | 1.7 | 2.6 | 0.00 | 0.00 | 0.00 | 65 | 997.4 |
| 20260509110036 | 52 | 236 | 2.6 | 5.2 | 0.00 | 0.00 | 0.00 | 67 | 997.6 |
| 20260509104542 | 46 | 108 | 0.0 | 0.0 | 0.00 | 0.00 | 0.00 | 69 | 997.9 |
| 20260509103035 | 47 | 110 | 0.0 | 0.9 | 0.00 | 0.00 | 0.00 | 63 | 997.9 |
| 20260509101543 | 47 | 250 | 0.0 | 0.0 | 0.00 | 0.00 | 0.00 | 58 | 998.2 |
| 20260509100029 | 50 | 250 | 0.0 | 0.9 | 0.00 | 0.00 | 0.00 | 56 | 998.5 |
| 20260509094535 | 51 | 250 | 0.0 | 0.9 | 0.00 | 0.00 | 0.00 | 57 | 998.8 |
| 20260509093021 | 47 | 261 | 0.9 | 5.2 | 0.00 | 0.00 | 0.00 | 67 | 999.2 |
| 20260509091534 | 46 | 136 | 0.0 | 0.9 | 0.00 | 0.00 | 0.00 | 69 | 999.2 |
| 20260509090022 | 45 | 240 | 0.0 | 1.7 | 0.00 | 0.00 | 0.00 | 73 | 999.4 |
| 20260509084521 | 43 | 131 | 0.0 | 0.9 | 0.00 | 0.00 | 0.00 | 78 | 999.5 |
| 20260509083016 | 43 | 131 | 0.0 | 0.0 | 0.00 | 0.00 | 0.00 | 81 | 999.6 |
| 20260509081524 | 43 | 131 | 0.0 | 0.0 | 0.00 | 0.00 | 0.00 | 83 | 999.7 |
| 20260509080012 | 43 | 131 | 0.0 | 0.0 | 0.00 | 0.00 | 0.00 | 81 | 999.8 |
| 20260509074509 | 44 | 131 | 0.0 | 0.0 | 0.00 | 0.00 | 0.00 | 81 | 1000.1 |
| 20260509073006 | 44 | 131 | 0.0 | 0.0 | 0.00 | 0.00 | 0.00 | 83 | 1000.4 |
| 20260509071502 | 44 | 131 | 0.0 | 0.0 | 0.00 | 0.00 | 0.00 | 80 | 1000.7 |
| 20260509070101 | 45 | 134 | 0.0 | 0.0 | 0.00 | 0.00 | 0.00 | 81 | 1000.9 |
| 20260509064618 | 45 | 134 | 0.0 | 0.0 | 0.00 | 0.00 | 0.00 | 80 | 1001.4 |
| 20260509063055 | 45 | 134 | 0.0 | 0.0 | 0.00 | 0.00 | 0.00 | 76 | 1001.6 |
| 20260509061554 | 45 | 134 | 0.0 | 0.0 | 0.00 | 0.00 | 0.00 | 77 | 1001.8 |
| 20260509060051 | 45 | 134 | 0.0 | 0.0 | 0.00 | 0.00 | 0.00 | 78 | 1002.2 |
| 20260509054559 | 45 | 134 | 0.0 | 0.0 | 0.00 | 0.00 | 0.00 | 78 | 1002.7 |
| 20260509053050 | 45 | 134 | 0.0 | 0.0 | 0.00 | 0.00 | 0.00 | 76 | 1002.8 |
| 20260509051544 | 45 | 134 | 0.0 | 0.0 | 0.00 | 0.00 | 0.00 | 71 | 1002.9 |
| 20260509050042 | 46 | 134 | 0.0 | 0.0 | 0.00 | 0.00 | 0.00 | 68 | 1003.2 |
| 20260509044539 | 46 | 134 | 0.0 | 0.0 | 0.00 | 0.00 | 0.00 | 66 | 1003.3 |
| 20260509043037 | 47 | 134 | 0.0 | 0.0 | 0.00 | 0.00 | 0.00 | 64 | 1003.5 |
| 20260509041558 | 47 | 134 | 0.0 | 0.0 | 0.00 | 0.00 | 0.00 | 62 | 1003.8 |
| 20260509040032 | 47 | 134 | 0.0 | 0.0 | 0.00 | 0.00 | 0.00 | 63 | 1003.9 |
| 20260509034528 | 47 | 134 | 0.0 | 0.0 | 0.00 | 0.00 | 0.00 | 67 | 1004.0 |
| 20260509033028 | 47 | 134 | 0.0 | 0.0 | 0.00 | 0.00 | 0.00 | 66 | 1004.1 |
| 20260509031534 | 47 | 134 | 0.0 | 0.0 | 0.00 | 0.00 | 0.00 | 66 | 1004.2 |
| 20260509030026 | 47 | 134 | 0.0 | 0.9 | 0.00 | 0.00 | 0.00 | 66 | 1004.4 |
| 20260509024523 | 47 | 242 | 0.0 | 0.0 | 0.00 | 0.00 | 0.00 | 65 | 1004.7 |
| 20260509023027 | 48 | 242 | 0.0 | 0.0 | 0.00 | 0.00 | 0.00 | 66 | 1004.6 |
| 20260509021530 | 47 | 242 | 0.0 | 0.0 | 0.00 | 0.00 | 0.00 | 67 | 1004.6 |
| 20260509020039 | 48 | 242 | 0.0 | 0.0 | 0.00 | 0.00 | 0.00 | 67 | 1004.7 |
| 20260509014522 | 48 | 242 | 0.0 | 0.0 | 0.00 | 0.00 | 0.00 | 62 | 1004.7 |
| 20260509013034 | 49 | 242 | 0.0 | 0.0 | 0.00 | 0.00 | 0.00 | 60 | 1004.6 |
| 20260509011520 | 50 | 242 | 0.0 | 0.0 | 0.00 | 0.00 | 0.00 | 59 | 1004.6 |
| 20260509010019 | 51 | 242 | 0.0 | 3.5 | 0.00 | 0.00 | 0.00 | 56 | 1004.7 |
| 20260509004520 | 52 | 222 | 0.0 | 2.6 | 0.00 | 0.00 | 0.00 | 56 | 1004.7 |
| 20260509003018 | 53 | 265 | 2.6 | 3.5 | 0.00 | 0.00 | 0.00 | 55 | 1004.7 |
| 20260509001517 | 53 | 259 | 2.6 | 3.5 | 0.00 | 0.00 | 0.00 | 53 | 1004.6 |
| 20260509000016 | 53 | 246 | 2.6 | 3.5 | 0.00 | 0.00 | 0.00 | 54 | 1004.7 |
| 20260508234514 | 54 | 257 | 3.5 | 4.3 | 0.00 | 0.00 | 0.00 | 55 | 1004.9 |
| 20260508233011 | 54 | 248 | 3.5 | 4.3 | 0.00 | 0.00 | 0.00 | 55 | 1005.1 |
| 20260508231510 | 54 | 238 | 2.6 | 4.3 | 0.00 | 0.00 | 0.00 | 52 | 1005.1 |
| 20260508230008 | 54 | 243 | 2.6 | 4.3 | 0.00 | 0.00 | 0.00 | 49 | 1005.2 |
| 20260508224507 | 54 | 257 | 3.5 | 5.2 | 0.00 | 0.00 | 0.00 | 51 | 1005.2 |
| 20260508223004 | 54 | 247 | 3.5 | 5.2 | 0.00 | 0.00 | 0.00 | 51 | 1005.5 |
| 20260508221502 | 54 | 261 | 4.3 | 7.8 | 0.00 | 0.00 | 0.00 | 51 | 1005.6 |
| 20260508220001 | 54 | 258 | 5.2 | 8.7 | 0.00 | 0.00 | 0.00 | 50 | 1005.7 |
| 20260508214558 | 53 | 255 | 5.2 | 9.6 | 0.00 | 0.00 | 0.00 | 57 | 1005.9 |
| 20260508213055 | 53 | 274 | 5.2 | 9.6 | 0.00 | 0.00 | 0.00 | 54 | 1005.9 |
| 20260508211556 | 53 | 264 | 6.1 | 10.4 | 0.00 | 0.00 | 0.00 | 54 | 1006.0 |
| 20260508210052 | 52 | 261 | 7.0 | 8.7 | 0.00 | 0.00 | 0.00 | 55 | 1006.1 |
| 20260508204553 | 51 | 271 | 6.1 | 13.0 | 0.00 | 0.00 | 0.00 | 59 | 1006.3 |
| 20260508203048 | 51 | 264 | 8.7 | 13.0 | 0.00 | 0.00 | 0.00 | 61 | 1006.5 |
| 20260508201548 | 51 | 251 | 9.6 | 12.2 | 0.00 | 0.00 | 0.00 | 61 | 1006.7 |
| 20260508200103 | 51 | 272 | 8.7 | 12.2 | 0.00 | 0.00 | 0.00 | 64 | 1006.8 |
| 20260508194542 | 51 | 251 | 9.6 | 13.9 | 0.00 | 0.00 | 0.00 | 62 | 1007.0 |
| 20260508193058 | 51 | 267 | 10.4 | 13.9 | 0.00 | 0.00 | 0.00 | 60 | 1007.1 |
| 20260508191541 | 51 | 261 | 9.6 | 15.6 | 0.00 | 0.00 | 0.00 | 59 | 1007.2 |
| 20260508190041 | 53 | 283 | 7.0 | 14.8 | 0.00 | 0.00 | 0.00 | 59 | 1007.1 |
| 20260508184539 | 52 | 266 | 6.1 | 13.0 | 0.00 | 0.00 | 0.00 | 57 | 1007.1 |
| 20260508183037 | 52 | 272 | 8.7 | 17.4 | 0.00 | 0.00 | 0.00 | 58 | 1007.1 |
| 20260508181546 | 52 | 233 | 7.8 | 18.2 | 0.00 | 0.00 | 0.00 | 52 | 1007.2 |
| 20260508180036 | 52 | 264 | 9.6 | 14.8 | 0.00 | 0.00 | 0.00 | 55 | 1007.3 |
| 20260508174531 | 52 | 266 | 7.8 | 13.9 | 0.00 | 0.00 | 0.00 | 53 | 1007.5 |
| 20260508173029 | 52 | 266 | 7.0 | 14.8 | 0.00 | 0.00 | 0.00 | 55 | 1007.8 |
| 20260508171527 | 51 | 273 | 9.6 | 15.6 | 0.00 | 0.00 | 0.00 | 55 | 1007.9 |
| 20260508170025 | 51 | 273 | 11.3 | 14.8 | 0.00 | 0.00 | 0.00 | 55 | 1008.0 |
| 20260508164521 | 51 | 250 | 8.7 | 13.9 | 0.00 | 0.00 | 0.00 | 56 | 1008.2 |
| 20260508163023 | 50 | 262 | 7.0 | 13.0 | 0.00 | 0.00 | 0.00 | 59 | 1008.5 |
| 20260508161517 | 50 | 268 | 7.8 | 13.9 | 0.00 | 0.00 | 0.00 | 59 | 1008.5 |
| 20260508160013 | 49 | 268 | 7.8 | 13.9 | 0.00 | 0.00 | 0.00 | 64 | 1008.7 |
| 20260508154537 | 49 | 266 | 7.8 | 11.3 | 0.00 | 0.00 | 0.00 | 62 | 1008.8 |
| 20260508153012 | 49 | 270 | 8.7 | 13.0 | 0.00 | 0.00 | 0.00 | 65 | 1009.0 |
| 20260508151512 | 49 | 275 | 6.1 | 11.3 | 0.00 | 0.00 | 0.00 | 61 | 1009.0 |
| 20260508150006 | 49 | 257 | 3.5 | 10.4 | 0.00 | 0.00 | 0.00 | 67 | 1009.0 |
| 20260508144505 | 48 | 266 | 4.3 | 8.7 | 0.00 | 0.00 | 0.00 | 66 | 1009.1 |
| 20260508143002 | 48 | 271 | 4.3 | 9.6 | 0.00 | 0.00 | 0.00 | 68 | 1009.2 |
| 20260508141605 | 47 | 264 | 1.7 | 6.1 | 0.00 | 0.00 | 0.00 | 68 | 1009.4 |
| 20260508140055 | 46 | 248 | 4.3 | 7.8 | 0.00 | 0.00 | 0.00 | 69 | 1009.4 |